Time;durP1;ratioP1;P1;durP2;ratioP2;P2;SDS_P1;SDS_P2;PMS_P1;PMS_P2;Temp;Humidity;BMP_temperature;BMP_pressure;BME280_temperature;BME280_humidity;BME280_pressure;Samples;Min_cycle;Max_cycle;Signal;HPM_P1;HPM_P2
2022/04/05 00:02:14;;;;;;;2.40;1.60;;;;;;;21.22;27.72;99325.28;5130745;28;20045;-53
2022/04/05 00:04:39;;;;;;;2.45;1.67;;;;;;;21.53;27.46;99315.72;5130542;28;20130;-54
2022/04/05 00:07:05;;;;;;;2.00;1.55;;;;;;;22.28;26.36;99319.16;5130532;28;20441;-53
2022/04/05 00:09:30;;;;;;;2.50;1.58;;;;;;;23.08;25.29;99304.53;5130797;28;20070;-59
2022/04/05 00:11:56;;;;;;;2.75;1.90;;;;;;;23.63;24.77;99309.88;5130693;28;20035;-59
2022/04/05 00:14:21;;;;;;;2.75;1.98;;;;;;;23.26;25.10;99305.38;5130371;28;20099;-59
2022/04/05 00:16:46;;;;;;;2.65;2.03;;;;;;;22.84;25.46;99308.75;5130469;28;20043;-59
2022/04/05 00:19:12;;;;;;;2.70;1.92;;;;;;;22.49;25.97;99310.16;5130582;28;20050;-59
2022/04/05 00:21:38;;;;;;;2.45;1.90;;;;;;;22.21;26.24;99303.19;5130369;28;20100;-59
2022/04/05 00:24:04;;;;;;;2.72;2.00;;;;;;;22.01;26.66;99309.41;5130510;28;20509;-59
2022/04/05 00:26:29;;;;;;;2.72;1.90;;;;;;;21.85;26.77;99296.50;5130416;28;20051;-59
2022/04/05 00:28:54;;;;;;;2.55;1.80;;;;;;;21.71;26.98;99302.75;5130259;28;20043;-59
2022/04/05 00:31:20;;;;;;;2.70;1.80;;;;;;;21.65;27.11;99297.94;5130475;28;20479;-59
2022/04/05 00:33:45;;;;;;;2.45;1.73;;;;;;;21.58;27.34;99303.44;5132705;27;20157;-59
2022/04/05 00:36:11;;;;;;;2.50;1.90;;;;;;;21.52;27.39;99291.84;5134141;28;20047;-59
2022/04/05 00:38:36;;;;;;;2.20;1.70;;;;;;;21.48;27.36;99295.78;5133848;28;20043;-59
2022/04/05 00:41:02;;;;;;;2.78;1.98;;;;;;;21.42;27.41;99293.31;5134040;28;20039;-59
2022/04/05 00:43:27;;;;;;;2.70;1.83;;;;;;;21.41;27.59;99297.28;5134007;28;20088;-59
2022/04/05 00:45:54;;;;;;;2.58;1.75;;;;;;;21.39;27.69;99299.66;5133843;28;20050;-59
2022/04/05 00:48:30;;;;;;;2.53;1.80;;;;;;;21.35;27.36;99290.47;5133757;28;20055;-59
2022/04/05 00:50:57;;;;;;;2.60;1.73;;;;;;;21.33;27.34;99292.84;5133745;28;20263;-59
2022/04/05 00:53:24;;;;;;;2.35;1.75;;;;;;;21.33;27.46;99289.25;5133587;28;20047;-59
2022/04/05 00:55:52;;;;;;;2.90;1.70;;;;;;;21.30;27.71;99290.84;5133713;28;20470;-59
2022/04/05 00:58:20;;;;;;;2.50;1.77;;;;;;;21.28;27.86;99298.75;5133687;28;20039;-59
2022/04/05 01:00:48;;;;;;;2.55;1.75;;;;;;;21.26;27.52;99292.72;5133671;28;20126;-59
2022/04/05 01:03:14;;;;;;;2.60;1.75;;;;;;;21.25;27.46;99280.00;5133514;28;20055;-59
2022/04/05 01:05:40;;;;;;;2.42;1.90;;;;;;;21.24;27.55;99283.97;5133515;28;20046;-59
2022/04/05 01:08:07;;;;;;;2.85;1.98;;;;;;;21.23;27.55;99276.81;5133503;28;20043;-59
2022/04/05 01:10:33;;;;;;;2.75;1.83;;;;;;;21.22;27.73;99272.44;5133572;28;20103;-59
2022/04/05 01:12:59;;;;;;;2.60;1.90;;;;;;;21.20;27.90;99272.00;5133407;28;20051;-59
2022/04/05 01:15:24;;;;;;;2.67;1.90;;;;;;;21.19;27.80;99270.41;5133357;28;20046;-59
2022/04/05 01:17:51;;;;;;;2.63;1.90;;;;;;;21.22;27.41;99279.94;5133210;28;20075;-60
2022/04/05 01:20:17;;;;;;;2.45;1.80;;;;;;;21.19;27.86;99273.19;5133171;28;20499;-59
2022/04/05 01:22:50;;;;;;;2.80;2.00;;;;;;;21.17;27.66;99270.00;5133274;28;20047;-60
2022/04/05 01:25:16;;;;;;;;;;;;;;;21.20;27.69;99266.44;5133704;28;20107;-53
2022/04/05 01:27:41;;;;;;;3.22;2.10;;;;;;;21.18;27.46;99257.69;5133296;28;19915;-51
2022/04/05 01:30:07;;;;;;;3.00;2.10;;;;;;;21.18;27.54;99266.03;5133241;28;20031;-52
2022/04/05 01:32:34;;;;;;;2.60;1.92;;;;;;;21.16;27.55;99268.41;5133061;28;20045;-54
2022/04/05 01:35:00;;;;;;;2.53;1.67;;;;;;;21.15;27.49;99264.81;5132829;28;20144;-53
2022/04/05 01:37:25;;;;;;;2.72;1.80;;;;;;;21.13;27.48;99263.56;5132947;28;20043;-51
2022/04/05 01:39:51;;;;;;;2.45;1.80;;;;;;;21.14;27.39;99267.94;5130841;27;20047;-52
2022/04/05 01:42:17;;;;;;;2.53;1.73;;;;;;;21.11;27.73;99266.75;5132817;28;20401;-55
2022/04/05 01:44:43;;;;;;;2.08;1.58;;;;;;;21.14;27.62;99271.53;5131781;27;20526;-51
2022/04/05 01:47:16;;;;;;;2.33;1.55;;;;;;;21.14;27.62;99270.72;5132913;28;20047;-51
2022/04/05 01:49:45;;;;;;;2.70;2.00;;;;;;;21.12;27.52;99259.19;5132849;28;20146;-53
2022/04/05 01:52:11;;;;;;;2.47;1.80;;;;;;;21.12;27.46;99259.19;5132836;28;20415;-53
2022/04/05 01:54:38;;;;;;;2.28;1.60;;;;;;;21.11;27.79;99263.16;5132415;28;20506;-54
2022/04/05 01:57:04;;;;;;;2.65;1.63;;;;;;;21.10;27.76;99264.34;5132631;28;20039;-54
2022/04/05 01:59:31;;;;;;;2.58;1.90;;;;;;;21.10;27.78;99264.34;5132868;28;20053;-52
2022/04/05 02:01:57;;;;;;;2.40;1.73;;;;;;;21.10;27.59;99267.94;5132832;28;20122;-53
2022/04/05 02:04:23;;;;;;;2.45;1.63;;;;;;;21.09;27.52;99262.75;5132527;28;20149;-50
2022/04/05 02:06:48;;;;;;;2.38;1.70;;;;;;;21.10;27.91;99261.56;5132669;28;20111;-49
2022/04/05 02:09:15;;;;;;;2.20;1.63;;;;;;;21.09;27.87;99265.53;5132695;28;20047;-53
2022/04/05 02:11:46;;;;;;;2.38;1.80;;;;;;;21.09;27.52;99254.41;5132406;28;20039;-54
2022/04/05 02:14:12;;;;;;;2.40;1.80;;;;;;;21.08;27.76;99259.19;5132348;28;20043;-54
2022/04/05 02:16:38;;;;;;;3.10;2.00;;;;;;;21.07;27.63;99257.53;5132404;28;20101;-52
2022/04/05 02:19:04;;;;;;;2.90;1.92;;;;;;;21.08;27.89;99263.94;5132466;28;20058;-55
2022/04/05 02:21:29;;;;;;;2.72;1.70;;;;;;;21.07;27.63;99265.88;5132337;28;20043;-55
2022/04/05 02:23:55;;;;;;;2.13;1.50;;;;;;;21.06;27.87;99257.94;5132325;28;20129;-53
2022/04/05 02:26:20;;;;;;;2.30;1.67;;;;;;;21.04;27.71;99258.31;5132153;28;20043;-54
2022/04/05 02:28:47;;;;;;;2.45;1.65;;;;;;;21.06;27.63;99255.16;5132242;28;20069;-50
2022/04/05 02:31:12;;;;;;;2.50;1.90;;;;;;;21.04;27.41;99257.53;5132017;28;20088;-52
2022/04/05 02:33:38;;;;;;;3.22;1.80;;;;;;;21.03;27.73;99259.50;5131946;28;20047;-51
2022/04/05 02:36:03;;;;;;;2.65;1.75;;;;;;;21.05;27.75;99256.34;5132195;28;20096;-60
2022/04/05 02:38:30;;;;;;;2.47;1.67;;;;;;;21.04;27.56;99251.97;5132026;28;20465;-59
2022/04/05 02:40:57;;;;;;;2.40;1.60;;;;;;;21.03;27.54;99256.72;5132119;28;20431;-59
2022/04/05 02:43:26;;;;;;;2.50;1.70;;;;;;;21.04;27.36;99255.53;5131991;28;20495;-59
2022/04/05 02:45:55;;;;;;;2.40;1.70;;;;;;;21.03;27.50;99250.38;5132102;28;20078;-60
2022/04/05 02:48:24;;;;;;;2.70;1.90;;;;;;;21.03;27.54;99248.38;5128193;28;20050;-60
2022/04/05 02:50:50;;;;;;;3.10;2.05;;;;;;;21.03;27.30;99244.81;5110955;28;20039;-60
2022/04/05 02:53:15;;;;;;;2.22;1.73;;;;;;;21.01;27.50;99244.38;5111213;28;20088;-59
2022/04/05 02:55:42;;;;;;;2.55;1.65;;;;;;;21.01;27.65;99247.16;5111034;28;20415;-59
2022/04/05 02:58:07;;;;;;;2.70;1.83;;;;;;;21.02;27.44;99243.22;5111261;28;20047;-59
2022/04/05 03:00:33;;;;;;;2.47;1.85;;;;;;;21.00;27.46;99234.44;5111048;28;20096;-60
2022/04/05 03:02:59;;;;;;;2.80;1.92;;;;;;;21.01;27.49;99236.06;5110963;28;20086;-60
2022/04/05 03:05:24;;;;;;;2.38;1.70;;;;;;;21.00;27.57;99234.44;5110922;28;20135;-60
2022/04/05 03:07:49;;;;;;;2.97;2.00;;;;;;;20.98;27.47;99226.47;5111048;28;20406;-59
2022/04/05 03:10:15;;;;;;;2.70;1.95;;;;;;;21.00;27.40;99234.44;5110920;28;20877;-60
2022/04/05 03:12:40;;;;;;;2.72;1.95;;;;;;;21.00;27.37;99228.88;5110861;28;20089;-59
2022/04/05 03:15:08;;;;;;;2.67;1.80;;;;;;;20.98;27.55;99225.66;5111086;28;20044;-60
2022/04/05 03:17:35;;;;;;;2.47;1.88;;;;;;;20.98;27.56;99231.22;5110775;28;20066;-59
2022/04/05 03:20:03;;;;;;;2.70;1.90;;;;;;;20.99;27.22;99227.28;5110802;28;20430;-59
2022/04/05 03:22:29;;;;;;;2.38;1.80;;;;;;;20.99;27.66;99230.03;5110715;28;20044;-59
2022/04/05 03:24:55;;;;;;;2.20;1.70;;;;;;;20.97;27.59;99221.28;5110843;28;20093;-59
2022/04/05 03:27:20;;;;;;;2.60;1.80;;;;;;;20.98;27.45;99220.09;5110784;28;20047;-59
2022/04/05 03:29:46;;;;;;;2.70;1.80;;;;;;;20.98;27.61;99222.88;5110720;28;20052;-59
2022/04/05 03:32:11;;;;;;;2.60;1.70;;;;;;;20.98;27.53;99220.91;5110672;28;20044;-60
2022/04/05 03:34:40;;;;;;;2.60;2.00;;;;;;;20.97;27.55;99215.72;5110606;28;20635;-59
2022/04/05 03:37:06;;;;;;;2.90;2.00;;;;;;;20.96;27.58;99208.56;5110381;28;20043;-60
2022/04/05 03:39:32;;;;;;;2.80;2.20;;;;;;;20.96;27.68;99211.34;5110557;28;20077;-59
2022/04/05 03:41:58;;;;;;;2.80;1.85;;;;;;;20.95;27.71;99213.34;5110390;28;20040;-60
2022/04/05 03:44:24;;;;;;;2.75;2.08;;;;;;;20.95;27.54;99207.78;5110796;28;20047;-59
2022/04/05 03:46:51;;;;;;;3.15;2.15;;;;;;;20.95;27.54;99205.00;5110492;28;20087;-60
2022/04/05 03:49:16;;;;;;;2.95;2.08;;;;;;;20.95;27.47;99209.75;5126001;28;20039;-60
2022/04/05 03:51:42;;;;;;;2.60;2.00;;;;;;;20.96;27.47;99214.13;5131128;28;20084;-60
2022/04/05 03:54:07;;;;;;;2.63;1.83;;;;;;;20.95;27.65;99212.53;5130858;28;20045;-59
2022/04/05 03:56:33;;;;;;;2.70;2.00;;;;;;;20.95;27.72;99213.34;5130849;28;20043;-59
2022/04/05 03:58:58;;;;;;;2.72;1.98;;;;;;;20.93;27.42;99206.53;5130932;28;20062;-59
2022/04/05 04:01:23;;;;;;;3.10;2.10;;;;;;;20.93;27.61;99209.31;5130775;28;20037;-60
2022/04/05 04:03:49;;;;;;;3.08;2.13;;;;;;;20.95;27.64;99204.19;5130844;28;20076;-59
2022/04/05 04:06:14;;;;;;;2.88;2.00;;;;;;;20.93;27.41;99203.75;5130841;28;20043;-59
2022/04/05 04:08:40;;;;;;;2.38;1.80;;;;;;;20.94;27.80;99208.97;5129690;27;20045;-59
2022/04/05 04:11:05;;;;;;;3.33;2.10;;;;;;;20.93;27.63;99204.56;5130485;28;20474;-59
2022/04/05 04:13:30;;;;;;;2.88;1.95;;;;;;;20.93;27.60;99209.31;5130552;28;20103;-59
2022/04/05 04:15:56;;;;;;;2.72;2.13;;;;;;;20.92;27.75;99194.63;5130507;28;20518;-60
2022/04/05 04:18:22;;;;;;;2.90;2.10;;;;;;;20.94;27.70;99202.59;5130292;28;20146;-59
2022/04/05 04:20:48;;;;;;;2.72;2.10;;;;;;;20.92;27.47;99200.19;5130451;28;20058;-59
2022/04/05 04:23:15;;;;;;;2.97;2.10;;;;;;;20.92;27.32;99199.38;5130493;28;20074;-59
2022/04/05 04:25:40;;;;;;;2.90;2.17;;;;;;;20.93;27.42;99207.34;5130503;28;20043;-60
2022/04/05 04:28:10;;;;;;;2.80;2.17;;;;;;;20.92;27.33;99199.38;5130372;28;20047;-60
2022/04/05 04:30:37;;;;;;;2.65;2.15;;;;;;;20.93;27.42;99206.53;5130470;28;20572;-59
2022/04/05 04:33:03;;;;;;;2.67;1.90;;;;;;;20.91;27.53;99211.69;5130328;28;20076;-60
2022/04/05 04:35:30;;;;;;;2.72;1.92;;;;;;;21.38;27.09;99203.47;5130381;28;20130;-60
2022/04/05 04:37:55;;;;;;;2.50;1.83;;;;;;;22.33;25.80;99204.56;5130429;28;20054;-59
2022/04/05 04:40:22;;;;;;;2.70;2.15;;;;;;;23.23;24.84;99191.75;5130254;28;20043;-59
2022/04/05 04:42:47;;;;;;;3.33;2.45;;;;;;;22.98;24.68;99198.06;5130220;28;20043;-60
2022/04/05 04:45:13;;;;;;;3.05;2.35;;;;;;;22.59;25.49;99205.50;5130266;28;20631;-60
2022/04/05 04:47:39;;;;;;;3.00;2.17;;;;;;;22.23;25.75;99202.53;5130392;28;20043;-60
2022/04/05 04:50:06;;;;;;;2.97;2.10;;;;;;;21.92;26.24;99201.09;5130192;28;20384;-60
2022/04/05 04:52:32;;;;;;;3.20;2.10;;;;;;;21.69;26.49;99199.34;5129875;28;20495;-60
2022/04/05 04:54:57;;;;;;;3.35;2.30;;;;;;;21.56;26.62;99205.59;5130078;28;20050;-60
2022/04/05 04:57:25;;;;;;;2.83;2.20;;;;;;;21.42;26.99;99195.94;5130100;28;20047;-59
2022/04/05 04:59:51;;;;;;;3.20;2.40;;;;;;;21.34;27.12;99187.91;5130077;28;20039;-60
2022/04/05 05:02:16;;;;;;;2.80;2.30;;;;;;;21.29;27.05;99196.59;5126033;28;20043;-60
2022/04/05 05:04:41;;;;;;;3.45;2.50;;;;;;;21.23;27.13;99198.94;5130139;28;20073;-59
2022/04/05 05:07:07;;;;;;;3.40;2.72;;;;;;;21.20;27.03;99201.66;5129672;28;20053;-59
2022/04/05 05:09:33;;;;;;;3.17;2.45;;;;;;;21.17;27.15;99208.81;5129753;28;20053;-60
2022/04/05 05:12:00;;;;;;;3.80;2.88;;;;;;;21.14;27.19;99199.22;5129821;28;20078;-59
2022/04/05 05:14:27;;;;;;;3.55;2.70;;;;;;;21.12;27.26;99203.56;5129859;28;20107;-59
2022/04/05 05:16:53;;;;;;;3.35;2.20;;;;;;;21.14;27.28;99204.00;5129817;28;20070;-59
2022/04/05 05:19:19;;;;;;;3.58;2.50;;;;;;;21.12;27.32;99209.13;5127098;27;20032;-59
2022/04/05 05:21:45;;;;;;;3.85;2.95;;;;;;;21.09;27.54;99205.16;5112816;28;20066;-59
2022/04/05 05:24:10;;;;;;;3.25;2.40;;;;;;;21.07;27.24;99201.13;5112587;28;20148;-59
2022/04/05 05:26:35;;;;;;;3.63;2.67;;;;;;;21.08;27.40;99209.13;5112882;28;20403;-60
2022/04/05 05:29:01;;;;;;;3.80;2.75;;;;;;;21.05;27.18;99200.72;5112772;28;20070;-59
2022/04/05 05:31:26;;;;;;;3.28;2.28;;;;;;;21.04;27.42;99202.69;5112764;28;20399;-59
2022/04/05 05:33:52;;;;;;;3.55;2.60;;;;;;;21.06;27.38;99196.75;5112666;28;20074;-59
2022/04/05 05:36:17;;;;;;;3.40;2.60;;;;;;;21.06;27.55;99210.66;5112498;28;20073;-59
2022/04/05 05:38:43;;;;;;;3.38;2.63;;;;;;;21.04;27.26;99207.47;5112471;28;20051;-55
2022/04/05 05:41:08;;;;;;;3.65;2.75;;;;;;;21.04;27.21;99201.91;5112550;28;20077;-53
2022/04/05 05:43:34;;;;;;;3.50;2.70;;;;;;;21.05;27.47;99206.28;5112391;28;20049;-54
2022/04/05 05:46:03;;;;;;;3.78;2.83;;;;;;;21.03;27.38;99205.88;5112550;28;20044;-55
2022/04/05 05:48:29;;;;;;;6.50;2.63;;;;;;;21.11;27.75;99213.09;5112271;28;20067;-56
2022/04/05 05:50:55;;;;;;;4.38;2.90;;;;;;;21.12;27.86;99209.94;5112454;28;20058;-55
2022/04/05 05:53:21;;;;;;;5.13;2.50;;;;;;;21.11;28.02;99200.00;5112207;28;20056;-56
2022/04/05 05:55:48;;;;;;;3.40;2.47;;;;;;;21.11;27.87;99207.53;5127593;28;20456;-57
2022/04/05 05:58:14;;;;;;;3.20;2.45;;;;;;;21.12;27.90;99200.78;5132015;28;20450;-57
2022/04/05 06:00:39;;;;;;;4.78;2.70;;;;;;;21.07;27.67;99209.47;5122204;28;20055;-57
2022/04/05 06:03:05;;;;;;;3.33;2.35;;;;;;;21.07;27.93;99210.28;5112023;28;20052;-57
2022/04/05 06:05:30;;;;;;;3.20;2.45;;;;;;;21.07;27.78;99215.03;5112037;28;20040;-57
2022/04/05 06:07:59;;;;;;;3.20;2.33;;;;;;;21.04;27.90;99211.03;5112036;28;20043;-57
2022/04/05 06:10:25;;;;;;;3.78;2.45;;;;;;;21.06;28.01;99221.78;5111802;28;20048;-58
2022/04/05 06:12:52;;;;;;;3.40;2.33;;;;;;;21.06;28.09;99221.78;5111845;28;20468;-59
2022/04/05 06:15:19;;;;;;;3.63;2.30;;;;;;;21.06;27.81;99222.59;5111847;28;20067;-59
2022/04/05 06:17:47;;;;;;;5.40;2.53;;;;;;;21.07;27.74;99223.38;5111531;28;20086;-59
2022/04/05 06:20:16;;;;;;;3.95;2.22;;;;;;;21.06;27.92;99227.34;5124281;28;20042;-59
2022/04/05 06:22:57;;;;;;;3.00;2.25;;;;;;;21.07;27.77;99226.16;5132476;28;20043;-59
2022/04/05 06:25:28;;;;;;;3.88;2.55;;;;;;;21.08;27.91;99219.44;5132049;28;20055;-59
2022/04/05 06:27:58;;;;;;;3.67;2.17;;;;;;;21.07;27.81;99220.59;5132081;28;20460;-58
2022/04/05 06:30:23;;;;;;;3.92;2.60;;;;;;;21.07;27.77;99215.84;5131349;27;20107;-59
2022/04/05 06:32:50;;;;;;;5.75;2.50;;;;;;;21.08;27.96;99213.88;5123756;28;20444;-59
2022/04/05 06:35:17;;;;;;;3.63;2.30;;;;;;;21.07;27.75;99217.81;5111553;28;20077;-59
2022/04/05 06:37:44;;;;;;;3.38;2.40;;;;;;;21.07;27.88;99217.81;5111501;28;20085;-59
2022/04/05 06:40:11;;;;;;;3.03;2.50;;;;;;;21.09;27.78;99221.84;5111171;28;20089;-59
2022/04/05 06:42:42;;;;;;;3.80;2.67;;;;;;;21.11;28.10;99221.44;5108597;28;20564;-59
2022/04/05 06:45:13;;;;;;;3.95;2.85;;;;;;;21.11;27.92;99227.81;5120876;28;20054;-59
2022/04/05 06:47:39;;;;;;;4.20;2.90;;;;;;;21.12;28.12;99217.47;5116804;28;20454;-59
2022/04/05 06:50:07;;;;;;;4.28;2.63;;;;;;;21.13;28.26;99216.28;5116375;28;20524;-58
2022/04/05 06:52:37;;;;;;;3.75;2.80;;;;;;;21.14;28.20;99215.09;5124383;28;20038;-59
2022/04/05 06:55:07;;;;;;;3.55;2.50;;;;;;;21.21;27.98;99219.94;5128801;28;20433;-58
2022/04/05 06:57:33;;;;;;;3.58;2.70;;;;;;;21.19;28.13;99209.22;5117618;28;20118;-59
2022/04/05 06:59:58;;;;;;;4.32;2.95;;;;;;;21.17;28.34;99204.03;5126428;28;20121;-60
2022/04/05 07:02:24;;;;;;;3.90;2.80;;;;;;;21.23;28.24;99212.84;5129063;28;20395;-58
2022/04/05 07:04:49;;;;;;;6.43;2.67;;;;;;;21.23;28.36;99201.72;5129694;28;20054;-57
2022/04/05 07:07:15;;;;;;;5.15;2.75;;;;;;;21.25;28.51;99195.75;5121952;28;20047;-57
2022/04/05 07:09:40;;;;;;;4.22;2.70;;;;;;;21.27;28.61;99212.84;5111617;28;20164;-57
2022/04/05 07:12:07;;;;;;;5.53;2.65;;;;;;;21.27;28.79;99199.75;5122419;28;20039;-59
2022/04/05 07:14:33;;;;;;;3.67;2.75;;;;;;;21.28;28.79;99197.78;5123065;28;20051;-58
2022/04/05 07:16:59;;;;;;;4.97;3.03;;;;;;;21.28;28.35;99204.16;5122024;28;20051;-59
2022/04/05 07:19:24;;;;;;;3.97;3.03;;;;;;;21.29;28.42;99197.44;5124479;28;20054;-58
2022/04/05 07:21:50;;;;;;;4.07;3.20;;;;;;;21.28;28.41;99193.03;5125393;28;20039;-59
2022/04/05 07:24:17;;;;;;;4.03;3.03;;;;;;;21.31;28.74;99195.06;5121334;28;20133;-58
2022/04/05 07:26:42;;;;;;;3.85;3.03;;;;;;;21.33;28.60;99200.22;5122891;28;20129;-55
2022/04/05 07:29:08;;;;;;;4.15;3.10;;;;;;;21.34;28.49;99194.28;5122545;28;20173;-56
2022/04/05 07:31:33;;;;;;;4.05;3.03;;;;;;;21.34;28.38;99191.50;5119444;28;20418;-55
2022/04/05 07:33:59;;;;;;;5.05;3.30;;;;;;;21.35;28.46;99192.28;5116387;28;20058;-56
2022/04/05 07:36:24;;;;;;;4.10;3.05;;;;;;;21.36;28.50;99188.31;5111122;28;20433;-55
2022/04/05 07:38:51;;;;;;;4.07;3.10;;;;;;;21.37;28.55;99187.16;5113360;28;20339;-58
2022/04/05 07:41:18;;;;;;;4.38;3.17;;;;;;;21.39;28.75;99182.00;5121122;28;20047;-59
2022/04/05 07:43:44;;;;;;;6.78;3.33;;;;;;;21.41;28.81;99180.44;5117564;27;20147;-59
2022/04/05 07:46:10;;;;;;;6.22;2.90;;;;;;;21.40;28.71;99184.41;5120057;28;20043;-58
2022/04/05 07:48:35;;;;;;;4.18;3.35;;;;;;;21.42;28.50;99181.22;5114489;28;20074;-58
2022/04/05 07:51:01;;;;;;;5.07;3.50;;;;;;;21.43;28.43;99180.88;5117244;28;20039;-59
2022/04/05 07:53:27;;;;;;;3.85;3.03;;;;;;;21.43;28.36;99180.88;5107157;27;20488;-58
2022/04/05 07:55:54;;;;;;;4.20;3.50;;;;;;;21.42;28.51;99168.13;5114814;28;20052;-58
2022/04/05 07:58:19;;;;;;;4.82;3.17;;;;;;;21.43;28.54;99161.41;5118416;28;20502;-58
2022/04/05 08:00:45;;;;;;;3.67;2.88;;;;;;;21.45;28.51;99165.78;5120294;28;20078;-59
2022/04/05 08:03:10;;;;;;;4.15;2.78;;;;;;;21.45;28.50;99147.09;5121715;28;20066;-57
2022/04/05 08:05:36;;;;;;;3.63;3.00;;;;;;;21.45;28.39;99154.63;5110439;27;20126;-59
2022/04/05 08:08:01;;;;;;;3.60;2.80;;;;;;;21.46;28.41;99161.78;5115434;27;20100;-58
2022/04/05 08:10:26;;;;;;;3.70;2.90;;;;;;;21.48;28.38;99164.97;5113698;28;20055;-58
2022/04/05 08:13:15;;;;;;;4.25;2.88;;;;;;;21.50;28.63;99157.03;5114633;28;20047;-58
2022/04/05 08:15:41;;;;;;;4.00;3.10;;;;;;;21.51;28.54;99153.09;5116630;28;20074;-59
2022/04/05 08:18:08;;;;;;;4.07;2.90;;;;;;;21.50;28.62;99143.13;5109426;27;20038;-58
2022/04/05 08:20:36;;;;;;;4.07;3.00;;;;;;;21.50;28.34;99146.72;5114069;28;20533;-58
2022/04/05 08:23:04;;;;;;;3.80;2.90;;;;;;;21.52;28.60;99149.94;5113556;27;20134;-58
2022/04/05 08:25:30;;;;;;;3.80;2.67;;;;;;;21.51;28.54;99159.47;5115192;27;20863;-58
2022/04/05 08:27:55;;;;;;;4.03;2.63;;;;;;;21.53;28.61;99145.16;5117679;27;20047;-59
2022/04/05 08:30:21;;;;;;;3.50;2.67;;;;;;;21.51;28.64;99148.34;5115841;28;20411;-58
2022/04/05 08:32:47;;;;;;;4.07;3.20;;;;;;;21.52;28.52;99151.91;5115106;28;20511;-59
2022/04/05 08:35:16;;;;;;;3.83;3.00;;;;;;;21.52;28.81;99147.13;5115834;27;20047;-58
2022/04/05 08:37:42;;;;;;;4.53;3.08;;;;;;;21.55;28.47;99142.78;5116948;28;20093;-58
2022/04/05 08:40:09;;;;;;;3.38;2.70;;;;;;;21.55;28.45;99138.00;5112029;27;20534;-59
2022/04/05 08:42:36;;;;;;;3.90;2.85;;;;;;;21.55;28.49;99143.56;5116032;28;20076;-58
2022/04/05 08:45:06;;;;;;;3.35;2.50;;;;;;;21.56;28.58;99130.47;5116277;28;20043;-59
2022/04/05 08:47:35;;;;;;;3.90;2.90;;;;;;;21.58;28.64;99136.47;5120808;28;20035;-59
2022/04/05 08:50:03;;;;;;;3.90;2.80;;;;;;;21.56;28.58;99124.88;5117196;27;20095;-59
2022/04/05 08:52:28;;;;;;;3.90;2.80;;;;;;;21.58;28.71;99133.66;5114045;27;20054;-59
2022/04/05 08:54:54;;;;;;;3.78;2.65;;;;;;;21.59;28.39;99136.06;5119663;28;20059;-59
2022/04/05 08:57:20;;;;;;;3.15;2.40;;;;;;;21.62;28.43;99135.28;5117952;27;20044;-57
2022/04/05 08:59:45;;;;;;;4.00;2.95;;;;;;;21.60;28.55;99134.88;5113405;27;20086;-59
2022/04/05 09:02:13;;;;;;;3.53;2.55;;;;;;;21.62;28.50;99131.69;5122352;28;20043;-59
2022/04/05 09:04:39;;;;;;;2.92;2.17;;;;;;;21.61;28.65;99128.13;5113500;27;20153;-58
2022/04/05 09:07:40;;;;;;;8.60;2.47;;;;;;;21.64;28.85;99118.97;5112794;27;20035;-58
2022/04/05 09:10:14;;;;;;;3.33;2.50;;;;;;;21.64;28.92;99129.31;5119877;28;20567;-58
2022/04/05 09:12:47;;;;;;;3.00;2.03;;;;;;;21.63;28.68;99120.16;5119418;28;20092;-59
2022/04/05 09:15:16;;;;;;;3.67;2.10;;;;;;;21.62;28.56;99124.16;5108462;27;20705;-59
2022/04/05 09:17:43;;;;;;;3.15;2.35;;;;;;;21.61;28.56;99125.34;5119749;28;20035;-59
2022/04/05 09:20:11;;;;;;;2.88;2.10;;;;;;;21.60;28.58;99123.75;5119654;28;20066;-59
2022/04/05 09:22:36;;;;;;;8.80;5.93;;;;;;;21.60;28.68;99118.19;5117946;28;20055;-58
2022/04/05 09:25:12;;;;;;;12.32;4.75;;;;;;;21.59;28.83;99110.22;5119595;28;20035;-57
2022/04/05 09:27:58;;;;;;;5.40;3.60;;;;;;;21.59;28.86;99115.78;5113851;27;20052;-59
2022/04/05 09:30:28;;;;;;;4.82;3.30;;;;;;;21.59;28.99;99121.34;5086985;28;20061;-58
2022/04/05 09:32:55;;;;;;;8.55;5.65;;;;;;;21.63;28.98;99114.59;5116547;27;20059;-59
2022/04/05 09:35:27;;;;;;;7.20;5.40;;;;;;;21.62;28.75;99096.31;5114811;27;20072;-58
2022/04/05 09:38:08;;;;;;;4.82;3.58;;;;;;;21.61;28.86;99102.28;5114330;27;20047;-58
2022/04/05 09:40:35;;;;;;;5.85;3.95;;;;;;;21.59;29.07;99093.53;5113339;28;20063;-59
2022/04/05 09:43:07;;;;;;;5.43;3.83;;;;;;;21.59;28.98;99101.88;5118901;27;20137;-58
2022/04/05 09:45:49;;;;;;;7.68;3.65;;;;;;;21.61;28.96;99093.91;5116745;27;20046;-57
2022/04/05 09:48:17;;;;;;;5.75;3.50;;;;;;;21.56;29.15;99095.06;5114493;27;20168;-59
2022/04/05 09:51:06;;;;;;;6.05;3.42;;;;;;;21.57;28.88;99104.22;5116649;27;20041;-59
2022/04/05 09:53:54;;;;;;;5.43;3.17;;;;;;;21.55;28.88;99098.25;5116479;28;20066;-59
2022/04/05 09:56:23;;;;;;;4.72;3.05;;;;;;;21.55;29.02;99092.69;5117914;28;20070;-59
2022/04/05 09:58:57;;;;;;;6.10;3.40;;;;;;;21.55;28.81;99087.91;5117514;28;20431;-59
2022/04/05 10:01:25;;;;;;;4.72;3.08;;;;;;;21.55;29.15;99090.69;5121138;27;20050;-59
2022/04/05 10:04:01;;;;;;;4.65;3.33;;;;;;;21.53;28.89;99095.06;5119710;28;20573;-58
2022/04/05 10:06:30;;;;;;;4.13;2.70;;;;;;;21.53;29.07;99081.94;5108671;28;20126;-68
2022/04/05 10:08:56;;;;;;;5.47;3.22;;;;;;;21.52;28.99;99076.78;5113280;28;20035;-60
2022/04/05 10:11:24;;;;;;;3.70;2.80;;;;;;;21.47;28.96;99064.00;5116500;28;20035;-60
2022/04/05 10:13:50;;;;;;;4.30;2.75;;;;;;;21.49;28.87;99064.41;5103710;28;20047;-60
2022/04/05 10:16:18;;;;;;;6.03;2.38;;;;;;;21.44;28.73;99059.25;5108494;28;20051;-60
2022/04/05 10:18:46;;;;;;;5.72;2.40;;;;;;;21.43;28.64;99063.19;5112933;28;20132;-60
2022/04/05 10:21:14;;;;;;;3.03;2.13;;;;;;;21.38;28.53;99049.66;5114070;28;20047;-60
2022/04/05 10:23:43;;;;;;;4.45;2.13;;;;;;;21.38;28.42;99055.22;5117255;28;20047;-60
2022/04/05 10:26:15;;;;;;;3.65;2.03;;;;;;;21.34;28.34;99052.41;5117891;28;20561;-60
2022/04/05 10:28:42;;;;;;;2.95;2.10;;;;;;;21.30;28.48;99040.47;5096435;28;20049;-59
2022/04/05 10:31:20;;;;;;;3.05;2.20;;;;;;;21.30;28.41;99056.34;5119517;28;20107;-59
2022/04/05 10:34:14;;;;;;;5.03;2.10;;;;;;;21.28;28.01;99048.38;5121027;28;20515;-60
2022/04/05 10:36:41;;;;;;;3.40;1.90;;;;;;;21.23;27.92;99042.38;5117469;28;20039;-60
2022/04/05 10:39:12;;;;;;;2.95;2.00;;;;;;;21.21;27.98;99042.72;5118325;28;20414;-60
2022/04/05 10:41:38;;;;;;;2.75;1.85;;;;;;;21.17;28.07;99039.94;5116801;28;20077;-59
2022/04/05 10:44:23;;;;;;;3.10;2.00;;;;;;;21.17;27.98;99033.59;5116810;28;20122;-59
2022/04/05 10:46:55;;;;;;;2.92;1.95;;;;;;;21.14;27.72;99028.78;5114367;28;20047;-59
2022/04/05 10:49:44;;;;;;;2.78;1.77;;;;;;;21.14;27.79;99018.44;5111606;28;20040;-59
2022/04/05 10:52:21;;;;;;;2.70;1.80;;;;;;;21.11;27.48;99013.66;5116975;28;20062;-59
2022/04/05 10:54:52;;;;;;;3.38;2.30;;;;;;;21.18;27.94;99010.16;5127679;28;20047;-59
2022/04/05 10:57:27;;;;;;;2.80;1.80;;;;;;;21.23;27.86;99009.78;5123911;28;20035;-59
2022/04/05 11:00:10;;;;;;;3.38;1.98;;;;;;;21.22;27.82;98991.50;5123420;28;20055;-59
2022/04/05 11:02:51;;;;;;;2.95;2.08;;;;;;;21.28;28.01;98991.94;5122296;28;20082;-59
2022/04/05 11:05:19;;;;;;;2.97;1.80;;;;;;;21.23;27.30;98990.31;5125821;28;20411;-59
2022/04/05 11:07:54;;;;;;;2.63;1.60;;;;;;;21.20;27.12;98999.41;5125179;28;20079;-59
2022/04/05 11:10:44;;;;;;;3.15;1.55;;;;;;;21.17;27.12;98994.66;5114843;28;20043;-60
2022/04/05 11:13:18;;;;;;;3.47;1.80;;;;;;;21.14;27.29;98989.84;5125585;28;20039;-59
2022/04/05 11:15:46;;;;;;;3.13;1.70;;;;;;;21.13;27.08;98985.47;5127221;28;20042;-60
2022/04/05 11:18:20;;;;;;;3.10;1.88;;;;;;;21.10;26.98;98977.91;5122342;27;20066;-60
2022/04/05 11:20:47;;;;;;;2.05;1.35;;;;;;;21.08;27.07;98981.09;5114051;27;20100;-60
2022/04/05 11:23:16;;;;;;;2.78;1.52;;;;;;;21.06;27.00;98966.75;5116327;28;20066;-58
2022/04/05 11:25:43;;;;;;;2.70;1.60;;;;;;;21.07;26.88;98973.09;5122678;28;20049;-57
2022/04/05 11:28:17;;;;;;;3.80;1.65;;;;;;;21.05;26.85;98965.16;5126742;28;20388;-57
2022/04/05 11:30:58;;;;;;;2.63;1.48;;;;;;;21.10;27.02;98961.22;5119968;28;20517;-59
2022/04/05 11:33:26;;;;;;;2.83;1.60;;;;;;;21.10;26.64;98950.09;5102260;27;20142;-58
2022/04/05 11:36:07;;;;;;;4.72;1.55;;;;;;;21.07;26.75;98951.66;5110418;28;20043;-58
2022/04/05 11:38:48;;;;;;;2.47;1.60;;;;;;;21.08;26.75;98944.94;5121344;28;20055;-58